sensor_id;sensor_type;location;lat;lon;timestamp;temperature;humidity
8872;DHT22;4472;52.092;9.820;2023-12-14T00:02:45;6.30;99.90
8872;DHT22;4472;52.092;9.820;2023-12-14T00:05:32;6.30;99.90
8872;DHT22;4472;52.092;9.820;2023-12-14T00:08:19;6.40;99.90
8872;DHT22;4472;52.092;9.820;2023-12-14T00:11:10;6.30;99.90
8872;DHT22;4472;52.092;9.820;2023-12-14T00:13:59;6.20;99.90
8872;DHT22;4472;52.092;9.820;2023-12-14T00:16:46;6.20;99.90
8872;DHT22;4472;52.092;9.820;2023-12-14T00:19:33;6.20;99.90
8872;DHT22;4472;52.092;9.820;2023-12-14T00:22:20;6.20;99.90
8872;DHT22;4472;52.092;9.820;2023-12-14T00:25:07;6.20;99.90
8872;DHT22;4472;52.092;9.820;2023-12-14T00:27:55;6.20;99.90
8872;DHT22;4472;52.092;9.820;2023-12-14T00:30:43;6.20;99.90
8872;DHT22;4472;52.092;9.820;2023-12-14T00:33:31;6.20;99.90
8872;DHT22;4472;52.092;9.820;2023-12-14T00:36:18;6.20;99.90
8872;DHT22;4472;52.092;9.820;2023-12-14T00:39:06;6.20;99.90
8872;DHT22;4472;52.092;9.820;2023-12-14T00:41:53;6.20;99.90
8872;DHT22;4472;52.092;9.820;2023-12-14T00:44:40;6.30;99.90
8872;DHT22;4472;52.092;9.820;2023-12-14T00:47:29;6.10;99.90
8872;DHT22;4472;52.092;9.820;2023-12-14T00:50:16;6.10;99.90
8872;DHT22;4472;52.092;9.820;2023-12-14T00:53:03;6.00;99.90
8872;DHT22;4472;52.092;9.820;2023-12-14T00:55:50;5.90;99.90
8872;DHT22;4472;52.092;9.820;2023-12-14T00:58:38;6.00;99.90
8872;DHT22;4472;52.092;9.820;2023-12-14T01:01:25;5.90;99.90
8872;DHT22;4472;52.092;9.820;2023-12-14T01:04:13;5.90;99.90
8872;DHT22;4472;52.092;9.820;2023-12-14T01:07:00;5.90;99.90
8872;DHT22;4472;52.092;9.820;2023-12-14T01:09:48;5.80;99.90
8872;DHT22;4472;52.092;9.820;2023-12-14T01:12:35;5.80;99.90
8872;DHT22;4472;52.092;9.820;2023-12-14T01:15:22;5.70;99.90
8872;DHT22;4472;52.092;9.820;2023-12-14T01:18:09;5.70;99.90
8872;DHT22;4472;52.092;9.820;2023-12-14T01:21:00;5.60;99.90
8872;DHT22;4472;52.092;9.820;2023-12-14T01:23:47;5.70;99.90
8872;DHT22;4472;52.092;9.820;2023-12-14T01:26:35;5.40;99.90
8872;DHT22;4472;52.092;9.820;2023-12-14T01:29:22;5.30;99.90
8872;DHT22;4472;52.092;9.820;2023-12-14T01:32:09;5.40;99.90
8872;DHT22;4472;52.092;9.820;2023-12-14T01:34:56;5.30;99.90
8872;DHT22;4472;52.092;9.820;2023-12-14T01:37:44;5.60;99.90
8872;DHT22;4472;52.092;9.820;2023-12-14T01:40:31;5.40;99.90
8872;DHT22;4472;52.092;9.820;2023-12-14T01:43:18;5.30;99.90
8872;DHT22;4472;52.092;9.820;2023-12-14T01:46:06;5.30;99.90
8872;DHT22;4472;52.092;9.820;2023-12-14T01:48:53;5.30;99.90
8872;DHT22;4472;52.092;9.820;2023-12-14T01:51:40;5.30;99.90
8872;DHT22;4472;52.092;9.820;2023-12-14T01:54:28;5.30;99.90
8872;DHT22;4472;52.092;9.820;2023-12-14T01:57:16;5.30;99.90
8872;DHT22;4472;52.092;9.820;2023-12-14T02:00:03;5.30;99.90
8872;DHT22;4472;52.092;9.820;2023-12-14T02:02:51;5.40;99.90
8872;DHT22;4472;52.092;9.820;2023-12-14T02:05:38;5.40;99.90
8872;DHT22;4472;52.092;9.820;2023-12-14T02:08:27;5.40;99.90
8872;DHT22;4472;52.092;9.820;2023-12-14T02:11:15;5.40;99.90
8872;DHT22;4472;52.092;9.820;2023-12-14T02:14:06;5.40;99.90
8872;DHT22;4472;52.092;9.820;2023-12-14T02:16:53;5.40;99.90
8872;DHT22;4472;52.092;9.820;2023-12-14T02:19:40;5.30;99.90
8872;DHT22;4472;52.092;9.820;2023-12-14T02:22:40;5.30;99.90
8872;DHT22;4472;52.092;9.820;2023-12-14T02:25:34;5.30;99.90
8872;DHT22;4472;52.092;9.820;2023-12-14T02:28:22;5.10;99.90
8872;DHT22;4472;52.092;9.820;2023-12-14T02:31:09;5.00;99.90
8872;DHT22;4472;52.092;9.820;2023-12-14T02:33:56;5.10;99.90
8872;DHT22;4472;52.092;9.820;2023-12-14T02:36:43;5.10;99.90
8872;DHT22;4472;52.092;9.820;2023-12-14T02:39:32;5.20;99.90
8872;DHT22;4472;52.092;9.820;2023-12-14T02:42:19;5.10;99.90
8872;DHT22;4472;52.092;9.820;2023-12-14T02:45:07;5.10;99.90
8872;DHT22;4472;52.092;9.820;2023-12-14T02:47:55;5.10;99.90
8872;DHT22;4472;52.092;9.820;2023-12-14T02:50:42;5.10;99.90
8872;DHT22;4472;52.092;9.820;2023-12-14T02:53:29;5.10;99.90
8872;DHT22;4472;52.092;9.820;2023-12-14T02:56:18;5.20;99.90
8872;DHT22;4472;52.092;9.820;2023-12-14T02:59:05;5.10;99.90
8872;DHT22;4472;52.092;9.820;2023-12-14T03:01:52;5.20;99.90
8872;DHT22;4472;52.092;9.820;2023-12-14T03:04:39;5.00;99.90
8872;DHT22;4472;52.092;9.820;2023-12-14T03:07:26;5.00;99.90
8872;DHT22;4472;52.092;9.820;2023-12-14T03:10:13;4.90;99.90
8872;DHT22;4472;52.092;9.820;2023-12-14T03:13:02;4.90;99.90
8872;DHT22;4472;52.092;9.820;2023-12-14T03:15:49;4.90;99.90
8872;DHT22;4472;52.092;9.820;2023-12-14T03:18:36;5.60;99.90
8872;DHT22;4472;52.092;9.820;2023-12-14T03:21:23;5.20;99.90
8872;DHT22;4472;52.092;9.820;2023-12-14T03:24:10;5.10;99.90
8872;DHT22;4472;52.092;9.820;2023-12-14T03:26:57;5.70;99.90
8872;DHT22;4472;52.092;9.820;2023-12-14T03:29:46;5.10;99.90
8872;DHT22;4472;52.092;9.820;2023-12-14T03:32:33;5.00;99.90
8872;DHT22;4472;52.092;9.820;2023-12-14T03:35:20;5.00;99.90
8872;DHT22;4472;52.092;9.820;2023-12-14T03:38:08;5.00;99.90
8872;DHT22;4472;52.092;9.820;2023-12-14T03:40:55;5.60;99.90
8872;DHT22;4472;52.092;9.820;2023-12-14T03:43:42;4.90;99.90
8872;DHT22;4472;52.092;9.820;2023-12-14T03:46:31;4.80;99.90
8872;DHT22;4472;52.092;9.820;2023-12-14T03:49:20;4.90;99.90
8872;DHT22;4472;52.092;9.820;2023-12-14T03:52:08;4.80;99.90
8872;DHT22;4472;52.092;9.820;2023-12-14T03:54:55;4.80;99.90
8872;DHT22;4472;52.092;9.820;2023-12-14T03:57:43;4.80;99.90
8872;DHT22;4472;52.092;9.820;2023-12-14T04:00:30;4.80;99.90
8872;DHT22;4472;52.092;9.820;2023-12-14T04:03:18;5.40;99.90
8872;DHT22;4472;52.092;9.820;2023-12-14T04:06:06;4.80;99.90
8872;DHT22;4472;52.092;9.820;2023-12-14T04:08:53;4.70;99.90
8872;DHT22;4472;52.092;9.820;2023-12-14T04:11:40;4.60;99.90
8872;DHT22;4472;52.092;9.820;2023-12-14T04:14:28;5.10;99.90
8872;DHT22;4472;52.092;9.820;2023-12-14T04:17:15;4.70;99.90
8872;DHT22;4472;52.092;9.820;2023-12-14T04:20:05;4.70;99.90
8872;DHT22;4472;52.092;9.820;2023-12-14T04:22:53;4.80;99.90
8872;DHT22;4472;52.092;9.820;2023-12-14T04:25:40;4.80;99.90
8872;DHT22;4472;52.092;9.820;2023-12-14T04:28:27;4.70;99.90
8872;DHT22;4472;52.092;9.820;2023-12-14T04:31:14;4.50;99.90
8872;DHT22;4472;52.092;9.820;2023-12-14T04:34:01;4.70;99.90
8872;DHT22;4472;52.092;9.820;2023-12-14T04:36:50;4.60;99.90
8872;DHT22;4472;52.092;9.820;2023-12-14T04:39:38;4.70;99.90
8872;DHT22;4472;52.092;9.820;2023-12-14T04:42:25;4.70;99.90
8872;DHT22;4472;52.092;9.820;2023-12-14T04:45:13;4.60;99.90
8872;DHT22;4472;52.092;9.820;2023-12-14T04:48:02;4.50;99.90
8872;DHT22;4472;52.092;9.820;2023-12-14T04:50:49;4.50;99.90
8872;DHT22;4472;52.092;9.820;2023-12-14T04:53:38;4.50;99.90
8872;DHT22;4472;52.092;9.820;2023-12-14T04:56:25;4.40;99.90
8872;DHT22;4472;52.092;9.820;2023-12-14T04:59:13;4.60;99.90
8872;DHT22;4472;52.092;9.820;2023-12-14T05:02:00;4.60;99.90
8872;DHT22;4472;52.092;9.820;2023-12-14T05:04:47;5.90;99.90
8872;DHT22;4472;52.092;9.820;2023-12-14T05:07:34;4.70;99.90
8872;DHT22;4472;52.092;9.820;2023-12-14T05:10:22;4.70;99.90
8872;DHT22;4472;52.092;9.820;2023-12-14T05:13:09;4.70;99.90
8872;DHT22;4472;52.092;9.820;2023-12-14T05:15:57;5.40;99.90
8872;DHT22;4472;52.092;9.820;2023-12-14T05:18:44;4.70;99.90
8872;DHT22;4472;52.092;9.820;2023-12-14T05:21:31;4.70;99.90
8872;DHT22;4472;52.092;9.820;2023-12-14T05:27:07;4.80;99.90
8872;DHT22;4472;52.092;9.820;2023-12-14T05:29:54;4.90;99.90
8872;DHT22;4472;52.092;9.820;2023-12-14T05:32:41;4.90;99.90
8872;DHT22;4472;52.092;9.820;2023-12-14T05:35:28;4.90;99.90
8872;DHT22;4472;52.092;9.820;2023-12-14T05:38:16;4.80;99.90
8872;DHT22;4472;52.092;9.820;2023-12-14T05:41:03;4.70;99.90
8872;DHT22;4472;52.092;9.820;2023-12-14T05:43:52;4.70;99.90
8872;DHT22;4472;52.092;9.820;2023-12-14T05:46:39;4.60;99.90
8872;DHT22;4472;52.092;9.820;2023-12-14T05:49:26;4.50;99.90
8872;DHT22;4472;52.092;9.820;2023-12-14T05:52:13;4.60;99.90
8872;DHT22;4472;52.092;9.820;2023-12-14T05:55:01;4.20;99.90
8872;DHT22;4472;52.092;9.820;2023-12-14T05:57:48;4.20;99.90
8872;DHT22;4472;52.092;9.820;2023-12-14T06:00:36;4.00;99.90
8872;DHT22;4472;52.092;9.820;2023-12-14T06:03:25;4.20;99.90
8872;DHT22;4472;52.092;9.820;2023-12-14T06:06:13;4.10;99.90
8872;DHT22;4472;52.092;9.820;2023-12-14T06:09:00;5.50;99.90
8872;DHT22;4472;52.092;9.820;2023-12-14T06:11:47;4.30;99.90
8872;DHT22;4472;52.092;9.820;2023-12-14T06:14:34;4.30;99.90
8872;DHT22;4472;52.092;9.820;2023-12-14T06:17:23;4.30;99.90
8872;DHT22;4472;52.092;9.820;2023-12-14T06:20:11;4.50;99.90
8872;DHT22;4472;52.092;9.820;2023-12-14T06:22:59;4.40;99.90
8872;DHT22;4472;52.092;9.820;2023-12-14T06:25:46;4.80;99.90
8872;DHT22;4472;52.092;9.820;2023-12-14T06:28:33;4.50;99.90
8872;DHT22;4472;52.092;9.820;2023-12-14T06:31:21;4.50;99.90
8872;DHT22;4472;52.092;9.820;2023-12-14T06:34:10;4.40;99.90
8872;DHT22;4472;52.092;9.820;2023-12-14T06:36:57;4.40;99.90
8872;DHT22;4472;52.092;9.820;2023-12-14T06:39:45;4.20;99.90
8872;DHT22;4472;52.092;9.820;2023-12-14T06:42:33;4.20;99.90
8872;DHT22;4472;52.092;9.820;2023-12-14T06:45:20;4.30;99.90
8872;DHT22;4472;52.092;9.820;2023-12-14T06:48:07;4.20;99.90
8872;DHT22;4472;52.092;9.820;2023-12-14T06:50:56;4.20;99.90
8872;DHT22;4472;52.092;9.820;2023-12-14T06:53:44;4.20;99.90
8872;DHT22;4472;52.092;9.820;2023-12-14T06:56:32;4.10;99.90
8872;DHT22;4472;52.092;9.820;2023-12-14T06:59:19;4.20;99.90
8872;DHT22;4472;52.092;9.820;2023-12-14T07:02:06;4.20;99.90
8872;DHT22;4472;52.092;9.820;2023-12-14T07:04:54;4.20;99.90
8872;DHT22;4472;52.092;9.820;2023-12-14T07:07:42;4.30;99.90
8872;DHT22;4472;52.092;9.820;2023-12-14T07:10:29;4.30;99.90
8872;DHT22;4472;52.092;9.820;2023-12-14T07:13:16;4.30;99.90
8872;DHT22;4472;52.092;9.820;2023-12-14T07:16:06;4.30;99.90
8872;DHT22;4472;52.092;9.820;2023-12-14T07:18:53;4.30;99.90
8872;DHT22;4472;52.092;9.820;2023-12-14T07:21:40;4.40;99.90
8872;DHT22;4472;52.092;9.820;2023-12-14T07:24:29;4.40;99.90
8872;DHT22;4472;52.092;9.820;2023-12-14T07:27:16;6.10;99.90
8872;DHT22;4472;52.092;9.820;2023-12-14T07:30:04;4.50;99.90
8872;DHT22;4472;52.092;9.820;2023-12-14T07:32:52;4.50;99.90
8872;DHT22;4472;52.092;9.820;2023-12-14T07:35:39;4.40;99.90
8872;DHT22;4472;52.092;9.820;2023-12-14T07:38:26;4.40;99.90
8872;DHT22;4472;52.092;9.820;2023-12-14T07:41:17;4.40;99.90
8872;DHT22;4472;52.092;9.820;2023-12-14T07:44:04;4.70;99.90
8872;DHT22;4472;52.092;9.820;2023-12-14T07:46:51;4.70;99.90
8872;DHT22;4472;52.092;9.820;2023-12-14T07:49:38;4.50;99.90
8872;DHT22;4472;52.092;9.820;2023-12-14T07:52:25;4.30;99.90
8872;DHT22;4472;52.092;9.820;2023-12-14T07:55:13;4.40;99.90
8872;DHT22;4472;52.092;9.820;2023-12-14T07:58:01;4.40;99.90
8872;DHT22;4472;52.092;9.820;2023-12-14T08:00:48;4.20;99.90
8872;DHT22;4472;52.092;9.820;2023-12-14T08:03:36;4.20;99.90
8872;DHT22;4472;52.092;9.820;2023-12-14T08:06:23;4.20;99.90
8872;DHT22;4472;52.092;9.820;2023-12-14T08:09:10;6.10;99.90
8872;DHT22;4472;52.092;9.820;2023-12-14T08:11:57;4.20;99.90
8872;DHT22;4472;52.092;9.820;2023-12-14T08:14:52;5.00;99.90
8872;DHT22;4472;52.092;9.820;2023-12-14T08:17:40;4.50;99.90
8872;DHT22;4472;52.092;9.820;2023-12-14T08:20:27;5.20;99.90
8872;DHT22;4472;52.092;9.820;2023-12-14T08:23:15;4.30;99.90
8872;DHT22;4472;52.092;9.820;2023-12-14T08:26:03;4.30;99.90
8872;DHT22;4472;52.092;9.820;2023-12-14T08:28:50;4.50;99.90
8872;DHT22;4472;52.092;9.820;2023-12-14T08:31:39;4.60;99.90
8872;DHT22;4472;52.092;9.820;2023-12-14T08:34:26;4.50;99.90
8872;DHT22;4472;52.092;9.820;2023-12-14T08:37:14;4.30;99.90
8872;DHT22;4472;52.092;9.820;2023-12-14T08:40:01;4.40;99.90
8872;DHT22;4472;52.092;9.820;2023-12-14T08:42:49;4.30;99.90
8872;DHT22;4472;52.092;9.820;2023-12-14T08:45:36;4.40;99.90
8872;DHT22;4472;52.092;9.820;2023-12-14T08:48:24;4.50;99.90
8872;DHT22;4472;52.092;9.820;2023-12-14T08:51:12;4.40;99.90
8872;DHT22;4472;52.092;9.820;2023-12-14T08:53:59;4.50;99.90
8872;DHT22;4472;52.092;9.820;2023-12-14T08:56:46;4.40;99.90
8872;DHT22;4472;52.092;9.820;2023-12-14T08:59:33;4.30;99.90
8872;DHT22;4472;52.092;9.820;2023-12-14T09:02:20;4.30;99.90
8872;DHT22;4472;52.092;9.820;2023-12-14T09:05:09;4.30;99.90
8872;DHT22;4472;52.092;9.820;2023-12-14T09:07:56;4.40;99.90
8872;DHT22;4472;52.092;9.820;2023-12-14T09:10:45;4.80;99.90
8872;DHT22;4472;52.092;9.820;2023-12-14T09:13:32;4.50;99.90
8872;DHT22;4472;52.092;9.820;2023-12-14T09:16:19;4.40;99.90
8872;DHT22;4472;52.092;9.820;2023-12-14T09:19:06;4.50;99.90
8872;DHT22;4472;52.092;9.820;2023-12-14T09:21:55;4.30;99.90
8872;DHT22;4472;52.092;9.820;2023-12-14T09:24:42;4.60;99.90
8872;DHT22;4472;52.092;9.820;2023-12-14T09:27:29;4.30;99.90
8872;DHT22;4472;52.092;9.820;2023-12-14T09:30:16;4.30;99.90
8872;DHT22;4472;52.092;9.820;2023-12-14T09:33:04;4.30;99.90
8872;DHT22;4472;52.092;9.820;2023-12-14T09:35:51;4.30;99.90
8872;DHT22;4472;52.092;9.820;2023-12-14T09:38:40;4.30;99.90
8872;DHT22;4472;52.092;9.820;2023-12-14T09:41:27;4.30;99.90
8872;DHT22;4472;52.092;9.820;2023-12-14T09:44:14;4.30;99.90
8872;DHT22;4472;52.092;9.820;2023-12-14T09:47:01;4.30;99.90
8872;DHT22;4472;52.092;9.820;2023-12-14T09:49:49;4.40;99.90
8872;DHT22;4472;52.092;9.820;2023-12-14T09:52:38;4.50;99.90
8872;DHT22;4472;52.092;9.820;2023-12-14T09:55:27;4.50;99.90
8872;DHT22;4472;52.092;9.820;2023-12-14T09:58:14;4.40;99.90
8872;DHT22;4472;52.092;9.820;2023-12-14T10:01:01;4.40;99.90
8872;DHT22;4472;52.092;9.820;2023-12-14T10:03:50;4.40;99.90
8872;DHT22;4472;52.092;9.820;2023-12-14T10:06:38;4.40;99.90
8872;DHT22;4472;52.092;9.820;2023-12-14T10:09:25;4.70;99.90
8872;DHT22;4472;52.092;9.820;2023-12-14T10:12:17;4.20;99.90
8872;DHT22;4472;52.092;9.820;2023-12-14T10:15:04;4.40;99.90
8872;DHT22;4472;52.092;9.820;2023-12-14T10:20:40;4.40;99.90
8872;DHT22;4472;52.092;9.820;2023-12-14T10:23:27;4.40;99.90
8872;DHT22;4472;52.092;9.820;2023-12-14T10:26:15;4.40;99.90
8872;DHT22;4472;52.092;9.820;2023-12-14T10:29:04;4.40;99.90
8872;DHT22;4472;52.092;9.820;2023-12-14T10:31:52;4.50;99.90
8872;DHT22;4472;52.092;9.820;2023-12-14T10:34:39;4.60;99.90
8872;DHT22;4472;52.092;9.820;2023-12-14T10:37:31;4.70;99.90
8872;DHT22;4472;52.092;9.820;2023-12-14T10:40:19;4.80;99.90
8872;DHT22;4472;52.092;9.820;2023-12-14T10:43:07;4.80;99.90
8872;DHT22;4472;52.092;9.820;2023-12-14T10:45:56;4.90;99.90
8872;DHT22;4472;52.092;9.820;2023-12-14T10:48:45;4.90;99.90
8872;DHT22;4472;52.092;9.820;2023-12-14T10:51:34;4.90;99.90
8872;DHT22;4472;52.092;9.820;2023-12-14T10:54:24;4.90;99.90
8872;DHT22;4472;52.092;9.820;2023-12-14T10:57:12;4.90;99.90
8872;DHT22;4472;52.092;9.820;2023-12-14T10:59:59;4.90;99.90
8872;DHT22;4472;52.092;9.820;2023-12-14T11:02:48;4.90;99.90
8872;DHT22;4472;52.092;9.820;2023-12-14T11:05:35;4.70;99.90
8872;DHT22;4472;52.092;9.820;2023-12-14T11:08:24;4.90;99.90
8872;DHT22;4472;52.092;9.820;2023-12-14T11:11:12;4.90;99.90
8872;DHT22;4472;52.092;9.820;2023-12-14T11:14:07;4.80;99.90
8872;DHT22;4472;52.092;9.820;2023-12-14T11:16:56;4.70;99.90
8872;DHT22;4472;52.092;9.820;2023-12-14T11:19:50;4.80;99.90
8872;DHT22;4472;52.092;9.820;2023-12-14T11:22:43;4.60;99.90
8872;DHT22;4472;52.092;9.820;2023-12-14T11:25:31;4.70;99.90
8872;DHT22;4472;52.092;9.820;2023-12-14T11:28:19;4.80;99.90
8872;DHT22;4472;52.092;9.820;2023-12-14T11:31:10;5.20;99.90
8872;DHT22;4472;52.092;9.820;2023-12-14T11:33:58;4.70;99.90
8872;DHT22;4472;52.092;9.820;2023-12-14T11:36:50;4.70;99.90
8872;DHT22;4472;52.092;9.820;2023-12-14T11:39:37;4.70;99.90
8872;DHT22;4472;52.092;9.820;2023-12-14T11:42:24;4.80;99.90
8872;DHT22;4472;52.092;9.820;2023-12-14T11:45:12;4.90;99.90
8872;DHT22;4472;52.092;9.820;2023-12-14T11:48:00;5.00;99.90
8872;DHT22;4472;52.092;9.820;2023-12-14T11:50:49;4.80;99.90
8872;DHT22;4472;52.092;9.820;2023-12-14T11:53:38;5.00;99.90
8872;DHT22;4472;52.092;9.820;2023-12-14T11:56:28;5.20;99.90
8872;DHT22;4472;52.092;9.820;2023-12-14T11:59:17;5.30;99.90
8872;DHT22;4472;52.092;9.820;2023-12-14T12:02:04;5.30;99.90
8872;DHT22;4472;52.092;9.820;2023-12-14T12:04:51;5.30;99.90
8872;DHT22;4472;52.092;9.820;2023-12-14T12:07:39;5.50;99.90
8872;DHT22;4472;52.092;9.820;2023-12-14T12:10:31;5.40;99.90
8872;DHT22;4472;52.092;9.820;2023-12-14T12:13:19;5.50;99.90
8872;DHT22;4472;52.092;9.820;2023-12-14T12:16:10;5.50;99.90
8872;DHT22;4472;52.092;9.820;2023-12-14T12:18:57;5.50;99.90
8872;DHT22;4472;52.092;9.820;2023-12-14T12:21:44;5.50;99.90
8872;DHT22;4472;52.092;9.820;2023-12-14T12:24:31;5.30;99.90
8872;DHT22;4472;52.092;9.820;2023-12-14T12:27:20;5.40;99.90
8872;DHT22;4472;52.092;9.820;2023-12-14T12:30:08;5.60;99.90
8872;DHT22;4472;52.092;9.820;2023-12-14T12:32:55;5.40;99.90
8872;DHT22;4472;52.092;9.820;2023-12-14T12:35:43;5.30;99.90
8872;DHT22;4472;52.092;9.820;2023-12-14T12:38:30;5.40;99.90
8872;DHT22;4472;52.092;9.820;2023-12-14T12:41:17;5.70;99.90
8872;DHT22;4472;52.092;9.820;2023-12-14T12:44:06;5.60;99.90
8872;DHT22;4472;52.092;9.820;2023-12-14T12:46:54;5.50;99.90
8872;DHT22;4472;52.092;9.820;2023-12-14T12:52:32;5.20;99.90
8872;DHT22;4472;52.092;9.820;2023-12-14T12:55:19;5.20;99.90
8872;DHT22;4472;52.092;9.820;2023-12-14T12:58:06;5.10;99.90
8872;DHT22;4472;52.092;9.820;2023-12-14T13:00:55;5.10;99.90
8872;DHT22;4472;52.092;9.820;2023-12-14T13:03:43;5.10;99.90
8872;DHT22;4472;52.092;9.820;2023-12-14T13:06:30;5.10;99.90
8872;DHT22;4472;52.092;9.820;2023-12-14T13:09:17;5.10;99.90
8872;DHT22;4472;52.092;9.820;2023-12-14T13:12:06;5.30;99.90
8872;DHT22;4472;52.092;9.820;2023-12-14T13:14:53;5.20;99.90
8872;DHT22;4472;52.092;9.820;2023-12-14T13:17:42;5.20;99.90
8872;DHT22;4472;52.092;9.820;2023-12-14T13:20:29;5.20;99.90
8872;DHT22;4472;52.092;9.820;2023-12-14T13:23:17;5.20;99.90
8872;DHT22;4472;52.092;9.820;2023-12-14T13:26:04;5.20;99.90
8872;DHT22;4472;52.092;9.820;2023-12-14T13:28:52;5.20;99.90
8872;DHT22;4472;52.092;9.820;2023-12-14T13:31:39;5.20;99.90
8872;DHT22;4472;52.092;9.820;2023-12-14T13:34:30;5.30;99.90
8872;DHT22;4472;52.092;9.820;2023-12-14T13:37:18;5.30;99.90
8872;DHT22;4472;52.092;9.820;2023-12-14T13:40:07;5.30;99.90
8872;DHT22;4472;52.092;9.820;2023-12-14T13:42:55;5.30;99.90
8872;DHT22;4472;52.092;9.820;2023-12-14T13:45:45;5.40;99.90
8872;DHT22;4472;52.092;9.820;2023-12-14T13:48:33;5.40;99.90
8872;DHT22;4472;52.092;9.820;2023-12-14T13:51:22;5.40;99.90
8872;DHT22;4472;52.092;9.820;2023-12-14T13:54:09;5.30;99.90
8872;DHT22;4472;52.092;9.820;2023-12-14T13:56:56;5.40;99.90
8872;DHT22;4472;52.092;9.820;2023-12-14T13:59:43;5.40;99.90
8872;DHT22;4472;52.092;9.820;2023-12-14T14:02:31;5.40;99.90
8872;DHT22;4472;52.092;9.820;2023-12-14T14:05:19;5.40;99.90
8872;DHT22;4472;52.092;9.820;2023-12-14T14:08:08;5.40;99.90
8872;DHT22;4472;52.092;9.820;2023-12-14T14:10:55;5.40;99.90
8872;DHT22;4472;52.092;9.820;2023-12-14T14:13:42;5.40;99.90
8872;DHT22;4472;52.092;9.820;2023-12-14T14:16:29;5.40;99.90
8872;DHT22;4472;52.092;9.820;2023-12-14T14:19:17;5.50;99.90
8872;DHT22;4472;52.092;9.820;2023-12-14T14:22:04;5.40;99.90
8872;DHT22;4472;52.092;9.820;2023-12-14T14:24:52;5.60;99.90
8872;DHT22;4472;52.092;9.820;2023-12-14T14:27:40;5.40;99.90
8872;DHT22;4472;52.092;9.820;2023-12-14T14:30:27;5.50;99.90
8872;DHT22;4472;52.092;9.820;2023-12-14T14:33:16;5.40;99.90
8872;DHT22;4472;52.092;9.820;2023-12-14T14:36:05;5.40;99.90
8872;DHT22;4472;52.092;9.820;2023-12-14T14:38:54;5.40;99.90
8872;DHT22;4472;52.092;9.820;2023-12-14T14:41:44;5.40;99.90
8872;DHT22;4472;52.092;9.820;2023-12-14T14:44:31;5.40;99.90
8872;DHT22;4472;52.092;9.820;2023-12-14T14:47:18;5.40;99.90
8872;DHT22;4472;52.092;9.820;2023-12-14T14:50:06;5.40;99.90
8872;DHT22;4472;52.092;9.820;2023-12-14T14:52:54;5.50;99.90
8872;DHT22;4472;52.092;9.820;2023-12-14T14:55:41;5.50;99.90
8872;DHT22;4472;52.092;9.820;2023-12-14T14:58:30;5.40;99.90
8872;DHT22;4472;52.092;9.820;2023-12-14T15:01:17;5.40;99.90
8872;DHT22;4472;52.092;9.820;2023-12-14T15:04:04;5.40;99.90
8872;DHT22;4472;52.092;9.820;2023-12-14T15:06:52;5.40;99.90
8872;DHT22;4472;52.092;9.820;2023-12-14T15:09:39;5.40;99.90
8872;DHT22;4472;52.092;9.820;2023-12-14T15:12:26;5.40;99.90
8872;DHT22;4472;52.092;9.820;2023-12-14T15:15:14;5.40;99.90
8872;DHT22;4472;52.092;9.820;2023-12-14T15:18:02;5.40;99.90
8872;DHT22;4472;52.092;9.820;2023-12-14T15:20:49;5.40;99.90
8872;DHT22;4472;52.092;9.820;2023-12-14T15:23:39;5.40;99.90
8872;DHT22;4472;52.092;9.820;2023-12-14T15:26:29;5.40;99.90
8872;DHT22;4472;52.092;9.820;2023-12-14T15:29:20;5.40;99.90
8872;DHT22;4472;52.092;9.820;2023-12-14T15:32:09;5.40;99.90
8872;DHT22;4472;52.092;9.820;2023-12-14T15:34:58;5.30;99.90
8872;DHT22;4472;52.092;9.820;2023-12-14T15:37:46;5.30;99.90
8872;DHT22;4472;52.092;9.820;2023-12-14T15:40:33;5.30;99.90
8872;DHT22;4472;52.092;9.820;2023-12-14T15:43:21;5.30;99.90
8872;DHT22;4472;52.092;9.820;2023-12-14T15:46:09;5.30;99.90
8872;DHT22;4472;52.092;9.820;2023-12-14T15:48:58;5.30;99.90
8872;DHT22;4472;52.092;9.820;2023-12-14T15:51:45;5.30;99.90
8872;DHT22;4472;52.092;9.820;2023-12-14T15:54:33;5.30;99.90
8872;DHT22;4472;52.092;9.820;2023-12-14T15:57:20;5.30;99.90
8872;DHT22;4472;52.092;9.820;2023-12-14T16:00:08;5.30;99.90
8872;DHT22;4472;52.092;9.820;2023-12-14T16:02:55;5.30;99.90
8872;DHT22;4472;52.092;9.820;2023-12-14T16:05:44;5.30;99.90
8872;DHT22;4472;52.092;9.820;2023-12-14T16:08:31;5.30;99.90
8872;DHT22;4472;52.092;9.820;2023-12-14T16:11:22;5.30;99.90
8872;DHT22;4472;52.092;9.820;2023-12-14T16:14:09;5.40;99.90
8872;DHT22;4472;52.092;9.820;2023-12-14T16:16:59;5.30;99.90
8872;DHT22;4472;52.092;9.820;2023-12-14T16:19:46;5.30;99.90
8872;DHT22;4472;52.092;9.820;2023-12-14T16:22:35;5.30;99.90
8872;DHT22;4472;52.092;9.820;2023-12-14T16:25:23;5.20;99.90
8872;DHT22;4472;52.092;9.820;2023-12-14T16:28:10;5.20;99.90
8872;DHT22;4472;52.092;9.820;2023-12-14T16:31:02;5.20;99.90
8872;DHT22;4472;52.092;9.820;2023-12-14T16:33:50;5.20;99.90
8872;DHT22;4472;52.092;9.820;2023-12-14T16:36:37;5.20;99.90
8872;DHT22;4472;52.092;9.820;2023-12-14T16:39:26;5.30;99.90
8872;DHT22;4472;52.092;9.820;2023-12-14T16:42:13;5.30;99.90
8872;DHT22;4472;52.092;9.820;2023-12-14T16:45:01;5.30;99.90
8872;DHT22;4472;52.092;9.820;2023-12-14T16:47:48;5.30;99.90
8872;DHT22;4472;52.092;9.820;2023-12-14T16:50:36;5.20;99.90
8872;DHT22;4472;52.092;9.820;2023-12-14T16:53:24;5.30;99.90
8872;DHT22;4472;52.092;9.820;2023-12-14T16:56:16;5.20;99.90
8872;DHT22;4472;52.092;9.820;2023-12-14T16:59:04;5.20;99.90
8872;DHT22;4472;52.092;9.820;2023-12-14T17:01:51;5.10;99.90
8872;DHT22;4472;52.092;9.820;2023-12-14T17:04:38;5.10;99.90
8872;DHT22;4472;52.092;9.820;2023-12-14T17:07:26;5.10;99.90
8872;DHT22;4472;52.092;9.820;2023-12-14T17:10:13;5.10;99.90
8872;DHT22;4472;52.092;9.820;2023-12-14T17:13:03;5.00;99.90
8872;DHT22;4472;52.092;9.820;2023-12-14T17:15:50;5.10;99.90
8872;DHT22;4472;52.092;9.820;2023-12-14T17:18:38;5.00;99.90
8872;DHT22;4472;52.092;9.820;2023-12-14T17:21:26;5.10;99.90
8872;DHT22;4472;52.092;9.820;2023-12-14T17:24:14;5.00;99.90
8872;DHT22;4472;52.092;9.820;2023-12-14T17:27:01;5.00;99.90
8872;DHT22;4472;52.092;9.820;2023-12-14T17:29:50;5.00;99.90
8872;DHT22;4472;52.092;9.820;2023-12-14T17:32:37;5.00;99.90
8872;DHT22;4472;52.092;9.820;2023-12-14T17:35:24;5.00;99.90
8872;DHT22;4472;52.092;9.820;2023-12-14T17:38:12;5.00;99.90
8872;DHT22;4472;52.092;9.820;2023-12-14T17:40:59;5.10;99.90
8872;DHT22;4472;52.092;9.820;2023-12-14T17:43:51;5.10;99.90
8872;DHT22;4472;52.092;9.820;2023-12-14T17:46:39;5.10;99.90
8872;DHT22;4472;52.092;9.820;2023-12-14T17:49:27;5.00;99.90
8872;DHT22;4472;52.092;9.820;2023-12-14T17:52:14;5.00;99.90
8872;DHT22;4472;52.092;9.820;2023-12-14T17:55:01;5.00;99.90
8872;DHT22;4472;52.092;9.820;2023-12-14T17:57:48;5.00;99.90
8872;DHT22;4472;52.092;9.820;2023-12-14T18:00:36;5.00;99.90
8872;DHT22;4472;52.092;9.820;2023-12-14T18:03:25;5.10;99.90
8872;DHT22;4472;52.092;9.820;2023-12-14T18:06:15;5.00;99.90
8872;DHT22;4472;52.092;9.820;2023-12-14T18:09:02;5.00;99.90
8872;DHT22;4472;52.092;9.820;2023-12-14T18:11:51;5.00;99.90
8872;DHT22;4472;52.092;9.820;2023-12-14T18:14:38;5.00;99.90
8872;DHT22;4472;52.092;9.820;2023-12-14T18:17:26;4.90;99.90
8872;DHT22;4472;52.092;9.820;2023-12-14T18:20:15;4.80;99.90
8872;DHT22;4472;52.092;9.820;2023-12-14T18:23:02;4.70;99.90
8872;DHT22;4472;52.092;9.820;2023-12-14T18:25:50;4.70;99.90
8872;DHT22;4472;52.092;9.820;2023-12-14T18:28:38;4.60;99.90
8872;DHT22;4472;52.092;9.820;2023-12-14T18:31:26;4.60;99.90
8872;DHT22;4472;52.092;9.820;2023-12-14T18:34:18;4.60;99.90
8872;DHT22;4472;52.092;9.820;2023-12-14T18:37:07;4.60;99.90
8872;DHT22;4472;52.092;9.820;2023-12-14T18:39:59;4.60;99.90
8872;DHT22;4472;52.092;9.820;2023-12-14T18:42:46;4.60;99.90